Time;durP1;ratioP1;P1;durP2;ratioP2;P2;SDS_P1;SDS_P2;PMS_P1;PMS_P2;Temp;Humidity;BMP_temperature;BMP_pressure;BME280_temperature;BME280_humidity;BME280_pressure;Samples;Min_cycle;Max_cycle;Signal;HPM_P1;HPM_P2
2024/03/13 06:19:18;;;;;;;;;;;;;;;;;;;;;
2024/03/13 06:22:53;;;;;;;1.95;0.90;;;11.80;99.90;;;;;;5195640;22;20604;-95
2024/03/13 06:26:01;;;;;;;2.72;1.08;;;11.90;99.90;;;;;;5065865;23;20267;-94
2024/03/13 06:38:42;;;;;;;6.55;1.90;;;12.10;99.90;;;;;;5046766;23;20166;-95
2024/03/13 06:45:08;;;;;;;4.25;1.42;;;12.10;99.90;;;;;;5134145;23;20193;-92
2024/03/13 06:47:38;;;;;;;1.63;0.70;;;12.10;99.90;;;;;;5101202;23;20163;-96
2024/03/13 06:49:52;;;;;;;2.78;1.00;;;12.10;99.90;;;;;;5131081;23;20231;-96
2024/03/13 06:52:18;;;;;;;3.45;1.10;;;12.10;99.90;;;;;;5122058;23;20186;-94
2024/03/13 06:54:22;;;;;;;2.05;1.38;;;12.10;99.90;;;;;;5119639;23;20152;-94
2024/03/13 06:56:45;;;;;;;14.32;3.35;;;11.90;99.90;;;;;;5144751;23;20182;-94
2024/03/13 06:59:19;;;;;;;;;;;;;;;;;;;;;
2024/03/13 07:01:56;;;;;;;6.00;2.28;;;11.90;99.90;;;;;;5145695;23;20166;-94
2024/03/13 07:04:08;;;;;;;6.25;2.63;;;11.90;99.90;;;;;;5119028;23;20500;-93
2024/03/13 07:09:24;;;;;;;10.27;5.75;;;12.00;99.90;;;;;;5119666;23;20152;-93
2024/03/13 07:11:31;;;;;;;21.42;13.43;;;12.00;99.90;;;;;;5096023;23;20219;-94
2024/03/13 07:13:33;;;;;;;5.05;3.13;;;11.90;99.90;;;;;;5096839;23;20240;-94
2024/03/13 07:15:48;;;;;;;5.32;1.90;;;12.00;99.90;;;;;;5098081;23;20745;-93
2024/03/13 07:18:16;;;;;;;;;;;;;;;;;;;;;
2024/03/13 07:20:17;;;;;;;4.72;2.70;;;11.90;99.90;;;;;;5118801;23;20478;-93
2024/03/13 07:22:18;;;;;;;3.85;2.03;;;11.90;99.90;;;;;;5122623;23;20449;-94
2024/03/13 07:24:24;;;;;;;8.57;4.63;;;12.00;99.90;;;;;;5096091;23;20192;-95
2024/03/13 07:26:33;;;;;;;2.38;1.42;;;12.00;99.90;;;;;;5155777;23;20638;-96
2024/03/13 07:28:45;;;;;;;3.40;1.48;;;12.00;99.90;;;;;;5096133;23;20156;-95
2024/03/13 07:31:09;;;;;;;3.92;2.15;;;12.00;99.90;;;;;;5140361;23;20160;-95
2024/03/13 07:33:21;;;;;;;1.55;0.70;;;11.90;99.90;;;;;;5117805;23;20224;-94
2024/03/13 07:35:41;;;;;;;6.18;3.92;;;12.00;99.90;;;;;;5096507;23;20153;-94
2024/03/13 07:38:10;;;;;;;1.15;0.45;;;12.00;99.90;;;;;;5093586;23;20153;-96
2024/03/13 07:40:37;;;;;;;4.45;1.20;;;12.00;99.90;;;;;;5094386;23;20177;-94
2024/03/13 07:45:58;;;;;;;2.60;1.10;;;12.10;99.90;;;;;;5091894;23;20161;-94
2024/03/13 07:49:05;;;;;;;;;;;;;;;;;;;;;
2024/03/13 07:51:30;;;;;;;5.95;2.88;;;12.20;99.90;;;;;;5106813;23;20174;-94
2024/03/13 07:53:51;;;;;;;;;;;;;;;;;;;;;
2024/03/13 07:56:20;;;;;;;2.38;0.73;;;12.30;99.90;;;;;;5144699;23;20159;-94
2024/03/13 07:58:54;;;;;;;1.35;0.63;;;12.40;99.90;;;;;;5087479;23;20169;-93
2024/03/13 08:01:05;;;;;;;2.40;0.70;;;12.30;99.90;;;;;;5119868;23;20238;-96
2024/03/13 08:03:14;;;;;;;0.45;0.20;;;12.20;99.90;;;;;;5144525;23;20190;-93
2024/03/13 08:05:30;;;;;;;3.13;1.20;;;12.20;99.90;;;;;;5144080;23;20159;-96
2024/03/13 08:08:08;;;;;;;3.17;0.38;;;12.20;99.90;;;;;;5119342;23;20239;-93
2024/03/13 08:10:25;;;;;;;2.40;0.75;;;12.30;99.90;;;;;;5121646;23;20176;-96
2024/03/13 08:13:02;;;;;;;3.40;0.65;;;12.30;99.90;;;;;;5118840;23;20156;-94
2024/03/13 08:15:16;;;;;;;1.08;0.57;;;12.30;99.90;;;;;;5113379;23;20587;-94
2024/03/13 08:17:24;;;;;;;4.40;0.80;;;12.30;99.90;;;;;;5118653;23;20191;-95
2024/03/13 08:19:29;;;;;;;2.45;0.93;;;12.30;99.90;;;;;;5117041;23;20173;-94
2024/03/13 08:21:56;;;;;;;2.17;0.68;;;12.30;99.90;;;;;;5120027;23;20157;-93
2024/03/13 08:24:05;;;;;;;1.95;1.10;;;12.40;99.90;;;;;;5143354;23;20191;-95
2024/03/13 08:26:55;;;;;;;4.93;0.75;;;12.50;99.90;;;;;;5116165;23;20226;-96
2024/03/13 08:29:15;;;;;;;7.35;1.77;;;12.60;99.90;;;;;;5143936;23;20151;-94
2024/03/13 08:31:39;;;;;;;6.15;2.15;;;12.40;99.90;;;;;;5120331;23;20156;-96
2024/03/13 08:34:07;;;;;;;2.83;1.08;;;12.50;99.90;;;;;;5142795;23;20151;-93
2024/03/13 08:36:34;;;;;;;1.98;0.85;;;12.70;99.90;;;;;;5121195;23;20144;-94
2024/03/13 08:38:47;;;;;;;6.63;2.13;;;12.70;99.90;;;;;;5120163;23;20160;-94
2024/03/13 08:40:59;;;;;;;1.85;0.70;;;12.80;99.90;;;;;;5095094;23;20464;-95
2024/03/13 08:43:23;;;;;;;;;;;;;;;;;;;;;
2024/03/13 08:49:22;;;;;;;2.28;0.52;;;13.00;99.90;;;;;;5109826;23;20152;-93
2024/03/13 08:51:41;;;;;;;6.78;2.97;;;12.90;99.90;;;;;;5095883;23;20157;-95
2024/03/13 08:54:10;;;;;;;3.97;2.58;;;13.00;99.90;;;;;;5132523;23;20144;-96
2024/03/13 08:56:30;;;;;;;1.55;0.90;;;13.00;99.90;;;;;;5132388;23;20157;-94
2024/03/13 08:59:04;;;;;;;2.40;0.85;;;13.20;99.90;;;;;;5144963;23;20210;-95
2024/03/13 09:01:15;;;;;;;4.38;2.78;;;13.40;99.90;;;;;;5145065;23;20156;-94
2024/03/13 09:03:40;;;;;;;2.13;1.25;;;13.40;99.90;;;;;;5128202;23;20567;-95
2024/03/13 09:06:17;;;;;;;;;;;;;;;;;;;;;
2024/03/13 09:08:42;;;;;;;4.68;0.88;;;13.50;99.90;;;;;;5118708;23;20564;-94
2024/03/13 09:11:00;;;;;;;5.55;2.33;;;13.50;99.90;;;;;;5143675;23;20156;-96
2024/03/13 09:13:41;;;;;;;1.80;0.93;;;13.70;99.90;;;;;;5121189;23;20140;-93
2024/03/13 09:16:04;;;;;;;1.38;0.47;;;13.90;99.90;;;;;;5119182;23;20152;-94
2024/03/13 09:18:09;;;;;;;5.28;1.95;;;14.10;99.90;;;;;;5094942;23;20149;-94
2024/03/13 09:20:37;;;;;;;2.67;1.02;;;14.10;99.90;;;;;;5094589;23;20181;-94
2024/03/13 09:23:09;;;;;;;5.88;2.25;;;14.40;99.90;;;;;;5121102;23;20166;-95
2024/03/13 09:25:31;;;;;;;6.25;2.53;;;14.20;99.90;;;;;;5119072;23;20256;-93
2024/03/13 09:28:26;;;;;;;8.43;3.00;;;14.30;99.90;;;;;;5143950;23;20152;-94
2024/03/13 09:35:13;;;;;;;;;;;;;;;;;;;;;
2024/03/13 09:43:27;;;;;;;0.93;0.40;;;13.60;99.90;;;;;;5021137;23;20202;-96
2024/03/13 09:45:40;;;;;;;1.92;0.40;;;13.70;99.90;;;;;;5026047;23;20154;-96
2024/03/13 09:48:47;;;;;;;1.17;0.40;;;13.70;99.90;;;;;;5116019;22;20272;-95
2024/03/13 09:52:56;;;;;;;0.63;0.32;;;13.60;99.90;;;;;;5065249;23;20244;-94
2024/03/13 09:55:12;;;;;;;1.75;0.38;;;13.20;99.90;;;;;;4970640;23;20160;-94
2024/03/13 09:58:00;;;;;;;4.72;0.65;;;13.30;99.90;;;;;;4929066;24;20249;-93
2024/03/13 10:07:40;;;;;;;0.85;0.30;;;13.30;99.90;;;;;;4929848;24;20165;-95
2024/03/13 10:10:32;;;;;;;0.75;0.20;;;12.90;99.90;;;;;;4927938;24;20181;-96
2024/03/13 10:19:41;;;;;;;4.25;0.60;;;13.30;99.90;;;;;;4901698;24;20158;-93
2024/03/13 10:22:25;;;;;;;0.40;0.30;;;13.40;99.90;;;;;;5023147;23;20154;-94
2024/03/13 10:24:51;;;;;;;1.58;0.45;;;13.40;99.90;;;;;;5004973;23;20179;-95
2024/03/13 10:27:44;;;;;;;0.55;0.30;;;13.50;99.90;;;;;;5030910;23;20799;-94
2024/03/13 10:29:48;;;;;;;0.60;0.30;;;13.70;99.90;;;;;;5048376;23;20182;-93
2024/03/13 10:31:53;;;;;;;1.00;0.50;;;13.70;99.90;;;;;;5028352;23;20252;-93
2024/03/13 10:38:08;;;;;;;1.23;0.35;;;13.70;99.90;;;;;;5019150;23;20160;-96
2024/03/13 10:41:12;;;;;;;2.65;0.10;;;13.90;99.90;;;;;;5073896;23;20204;-96
2024/03/13 10:43:41;;;;;;;0.47;0.20;;;14.10;99.90;;;;;;5097358;23;20203;-95
2024/03/13 10:46:20;;;;;;;0.20;0.20;;;14.10;99.90;;;;;;5084649;23;20167;-94
2024/03/13 10:48:43;;;;;;;0.22;0.10;;;14.10;99.90;;;;;;5097176;23;20184;-95
2024/03/13 10:51:49;;;;;;;0.70;0.25;;;13.80;99.90;;;;;;5096772;23;20153;-95
2024/03/13 10:58:11;;;;;;;1.65;0.40;;;13.50;99.90;;;;;;4954557;24;20191;-96
2024/03/13 11:00:48;;;;;;;0.82;0.43;;;13.40;99.90;;;;;;4971781;23;20191;-95
2024/03/13 11:06:21;;;;;;;0.80;0.20;;;13.50;99.90;;;;;;4907561;24;20172;-96
2024/03/13 11:12:10;;;;;;;0.30;0.30;;;13.80;99.90;;;;;;5190609;22;20209;-96
2024/03/13 11:15:50;;;;;;;;;;;;;;;;;;;;;
2024/03/13 12:55:03;;;;;;;2.67;0.77;;;13.70;99.90;;;;;;5236676;22;20185;-94
2024/03/13 12:57:40;;;;;;;0.98;0.68;;;13.60;99.90;;;;;;5203471;22;20348;-93
2024/03/13 13:00:04;;;;;;;;;;;;;;;;;;;;;
2024/03/13 13:02:18;;;;;;;0.65;0.50;;;13.70;99.90;;;;;;5177111;23;20155;-96
2024/03/13 13:04:23;;;;;;;2.92;0.50;;;13.70;99.90;;;;;;5173709;23;20198;-96
2024/03/13 13:06:29;;;;;;;0.55;0.50;;;13.70;99.90;;;;;;5172630;23;20166;-94
2024/03/13 13:08:38;;;;;;;0.30;0.30;;;13.70;99.90;;;;;;5146425;23;20156;-94
2024/03/13 13:10:56;;;;;;;0.60;0.40;;;13.90;99.90;;;;;;5144929;23;20175;-94
2024/03/13 13:13:02;;;;;;;2.05;0.35;;;13.90;99.90;;;;;;5169778;23;20182;-93
2024/03/13 13:15:07;;;;;;;0.55;0.20;;;14.00;99.90;;;;;;5173211;23;20150;-95
2024/03/13 13:17:20;;;;;;;0.35;0.30;;;13.90;99.90;;;;;;5148575;23;20152;-96
2024/03/13 13:19:42;;;;;;;1.88;0.60;;;13.80;99.90;;;;;;5175427;23;20533;-96
2024/03/13 13:21:58;;;;;;;0.28;0.20;;;13.80;99.90;;;;;;5176146;23;20155;-94
2024/03/13 13:24:12;;;;;;;2.15;0.40;;;13.80;99.90;;;;;;5171556;23;20708;-94
2024/03/13 13:26:24;;;;;;;1.15;0.55;;;13.80;99.90;;;;;;5145768;23;20148;-94
2024/03/13 13:28:31;;;;;;;1.30;0.80;;;13.60;99.90;;;;;;5144619;23;20151;-94
2024/03/13 13:30:38;;;;;;;0.95;0.50;;;13.80;99.90;;;;;;5156469;23;20265;-94
2024/03/13 13:33:17;;;;;;;0.90;0.50;;;13.80;99.90;;;;;;5185114;22;20592;-95
2024/03/13 13:35:36;;;;;;;0.50;0.43;;;13.80;99.90;;;;;;5189171;22;20155;-95
2024/03/13 13:37:52;;;;;;;1.05;0.50;;;13.70;99.90;;;;;;5154639;23;20226;-93
2024/03/13 13:40:28;;;;;;;0.88;0.50;;;13.60;99.90;;;;;;5185368;22;20183;-93
2024/03/13 13:42:37;;;;;;;2.05;0.90;;;13.70;99.90;;;;;;5171527;23;20154;-93
2024/03/13 13:44:54;;;;;;;1.00;0.57;;;13.60;99.90;;;;;;5195246;22;20198;-96
2024/03/13 13:46:55;;;;;;;1.08;0.73;;;13.70;99.90;;;;;;5201150;22;20154;-96
2024/03/13 13:48:58;;;;;;;1.13;0.70;;;13.80;99.90;;;;;;5177169;23;20151;-95
2024/03/13 13:50:59;;;;;;;1.08;0.80;;;13.70;99.90;;;;;;5150421;23;20186;-96
2024/03/13 13:53:01;;;;;;;0.90;0.60;;;13.90;99.90;;;;;;5144293;23;20148;-96
2024/03/13 13:57:40;;;;;;;1.17;0.80;;;13.80;99.90;;;;;;5146432;22;20151;-96
2024/03/13 13:59:47;;;;;;;3.03;0.70;;;13.70;99.90;;;;;;5182696;22;20174;-96
2024/03/13 14:01:55;;;;;;;2.83;0.75;;;13.50;99.90;;;;;;5155435;23;20653;-96
2024/03/13 14:04:44;;;;;;;0.30;0.30;;;13.70;99.90;;;;;;5156906;23;20230;-96
2024/03/13 14:06:57;;;;;;;0.60;0.40;;;13.60;99.90;;;;;;5156816;23;20630;-96
2024/03/13 14:09:23;;;;;;;;;;;;;;;;;;;;;
2024/03/13 14:11:26;;;;;;;1.70;0.85;;;13.60;99.90;;;;;;5181281;23;20155;-96
2024/03/13 14:14:02;;;;;;;1.75;0.73;;;13.60;99.90;;;;;;5157877;23;20202;-96
2024/03/13 14:16:17;;;;;;;1.17;0.73;;;13.70;99.90;;;;;;5181361;23;20189;-95
2024/03/13 14:18:26;;;;;;;1.45;0.60;;;13.70;99.90;;;;;;5175159;23;20233;-96
2024/03/13 14:20:30;;;;;;;0.70;0.55;;;13.70;99.90;;;;;;5151686;23;20194;-96
2024/03/13 14:22:52;;;;;;;1.10;0.70;;;13.70;99.90;;;;;;5134787;23;20182;-96
2024/03/13 14:25:05;;;;;;;1.95;0.68;;;13.60;99.90;;;;;;5182512;22;20159;-96
2024/03/13 14:27:29;;;;;;;0.95;0.60;;;13.60;99.90;;;;;;5182670;22;20173;-96
2024/03/13 14:29:44;;;;;;;1.92;0.52;;;13.70;99.90;;;;;;5156858;23;20171;-96
2024/03/13 14:31:49;;;;;;;1.38;0.80;;;13.80;99.90;;;;;;5180261;23;20162;-96
2024/03/13 14:33:57;;;;;;;2.47;0.88;;;13.90;99.90;;;;;;5134308;23;20160;-96
2024/03/13 14:36:06;;;;;;;0.80;0.70;;;13.90;99.90;;;;;;5156089;23;20158;-95
2024/03/13 14:38:10;;;;;;;1.67;0.77;;;13.80;99.90;;;;;;5157157;23;20155;-96
2024/03/13 14:40:25;;;;;;;1.35;0.80;;;13.80;99.90;;;;;;5157283;23;20660;-96
2024/03/13 14:42:37;;;;;;;2.47;0.70;;;13.80;99.90;;;;;;5159762;23;20507;-96
2024/03/13 14:45:02;;;;;;;1.45;0.70;;;13.80;99.90;;;;;;5178677;23;20218;-96
2024/03/13 14:47:08;;;;;;;1.55;0.80;;;13.70;99.90;;;;;;5179456;22;20151;-95
2024/03/13 14:49:19;;;;;;;1.42;0.75;;;13.80;99.90;;;;;;5150149;23;20171;-96
2024/03/13 14:51:25;;;;;;;0.73;0.57;;;13.60;99.90;;;;;;5148041;23;20517;-96
2024/03/13 14:53:34;;;;;;;1.45;0.57;;;13.70;99.90;;;;;;5151352;23;20179;-96
2024/03/13 14:55:38;;;;;;;0.77;0.55;;;13.90;99.90;;;;;;5148562;23;20159;-96
2024/03/13 14:57:39;;;;;;;0.75;0.60;;;14.00;99.90;;;;;;5177112;23;20605;-94
2024/03/13 14:59:50;;;;;;;6.53;0.88;;;14.10;99.90;;;;;;5180948;23;20270;-96
2024/03/13 15:02:14;;;;;;;0.90;0.65;;;14.20;99.90;;;;;;5185815;23;20155;-96
2024/03/13 15:04:35;;;;;;;6.78;1.52;;;14.20;99.90;;;;;;5185706;22;20198;-96
2024/03/13 15:06:45;;;;;;;3.30;1.20;;;14.30;99.90;;;;;;5159913;22;20162;-96
2024/03/13 15:09:02;;;;;;;0.88;0.60;;;14.20;99.90;;;;;;5189929;22;20142;-96
2024/03/13 15:11:56;;;;;;;1.02;0.65;;;14.20;99.90;;;;;;5185718;22;20135;-94
2024/03/13 15:15:09;;;;;;;1.35;0.80;;;14.10;99.90;;;;;;5189334;23;20166;-96
2024/03/13 15:17:11;;;;;;;1.27;0.77;;;13.80;99.90;;;;;;5165325;23;20138;-96
2024/03/13 15:19:28;;;;;;;1.13;0.75;;;14.00;99.90;;;;;;5162698;22;20156;-96
2024/03/13 15:21:38;;;;;;;4.22;0.80;;;14.00;99.90;;;;;;5163489;23;20140;-96
2024/03/13 15:23:45;;;;;;;1.85;1.20;;;13.80;99.90;;;;;;5187685;23;20186;-96
2024/03/13 15:26:09;;;;;;;1.30;0.77;;;13.90;99.90;;;;;;5187790;23;20139;-96
2024/03/13 15:28:19;;;;;;;1.83;1.20;;;13.80;99.90;;;;;;5174882;23;20150;-96
2024/03/13 15:30:23;;;;;;;4.97;2.47;;;13.90;99.90;;;;;;5161472;23;20223;-95
2024/03/13 15:32:38;;;;;;;41.17;19.75;;;14.00;99.90;;;;;;5182617;23;20214;-96
2024/03/13 15:34:39;;;;;;;33.35;15.18;;;13.90;99.90;;;;;;5149546;23;20144;-95
2024/03/13 15:36:49;;;;;;;1.52;1.20;;;13.80;99.90;;;;;;5150342;23;20232;-96
2024/03/13 15:38:52;;;;;;;2.05;1.05;;;13.80;99.90;;;;;;5147161;23;20151;-94
2024/03/13 15:41:09;;;;;;;;;;;;;;;;;;;;;
2024/03/13 15:43:29;;;;;;;1.15;0.77;;;14.00;99.90;;;;;;5171900;23;20170;-96
2024/03/13 15:45:57;;;;;;;1.58;0.80;;;14.10;99.90;;;;;;5144701;23;20640;-96
2024/03/13 15:48:29;;;;;;;1.17;0.75;;;14.00;99.90;;;;;;5146541;23;20231;-96
2024/03/13 15:50:34;;;;;;;1.10;0.77;;;13.70;99.90;;;;;;5142502;23;20171;-95
2024/03/13 15:52:36;;;;;;;1.42;0.80;;;13.70;99.90;;;;;;5143885;23;20152;-96
2024/03/13 15:55:05;;;;;;;1.58;0.80;;;13.60;99.90;;;;;;5143627;23;20162;-93
2024/03/13 15:57:15;;;;;;;1.63;1.33;;;13.70;99.90;;;;;;5096497;23;20159;-95
2024/03/13 15:59:19;;;;;;;1.95;1.10;;;13.70;99.90;;;;;;5143845;23;20210;-94
2024/03/13 16:01:40;;;;;;;1.50;1.20;;;13.70;99.90;;;;;;5142265;23;20226;-96
2024/03/13 16:03:51;;;;;;;1.30;0.90;;;13.80;99.90;;;;;;5168670;23;20221;-94
2024/03/13 16:06:03;;;;;;;2.70;1.15;;;13.70;99.90;;;;;;5143642;23;20155;-94
2024/03/13 16:08:48;;;;;;;3.22;1.42;;;13.60;99.90;;;;;;5144883;23;20190;-95
2024/03/13 16:10:58;;;;;;;2.25;1.50;;;13.50;99.90;;;;;;5142896;23;20155;-94
2024/03/13 16:13:04;;;;;;;4.20;1.63;;;13.70;99.90;;;;;;5143836;23;20155;-96
2024/03/13 16:15:14;;;;;;;3.55;1.95;;;13.90;99.90;;;;;;5145903;23;20144;-96
2024/03/13 16:17:15;;;;;;;3.83;2.22;;;13.80;99.90;;;;;;5143702;23;20154;-96
2024/03/13 16:19:49;;;;;;;2.10;1.40;;;13.80;99.90;;;;;;5143470;23;20172;-95
2024/03/13 16:21:52;;;;;;;1.35;0.82;;;13.80;99.90;;;;;;5141887;23;20150;-96
2024/03/13 16:23:58;;;;;;;4.95;1.52;;;13.50;99.90;;;;;;5151204;23;20638;-93
2024/03/13 16:26:07;;;;;;;1.83;1.10;;;13.40;99.90;;;;;;5153391;23;20148;-94
2024/03/13 16:28:11;;;;;;;3.40;1.60;;;13.40;99.90;;;;;;5151488;23;20151;-94
2024/03/13 16:30:21;;;;;;;12.43;2.25;;;13.30;99.90;;;;;;5178959;23;20661;-96
2024/03/13 16:32:28;;;;;;;1.83;1.45;;;13.20;99.90;;;;;;5177974;23;20174;-94
2024/03/13 16:34:32;;;;;;;3.53;1.48;;;13.20;99.90;;;;;;5176888;23;20194;-94
2024/03/13 16:36:38;;;;;;;2.60;1.17;;;13.30;99.90;;;;;;5154299;23;20193;-95
2024/03/13 16:38:43;;;;;;;2.22;1.20;;;13.30;99.90;;;;;;5152419;23;20186;-95
2024/03/13 16:40:47;;;;;;;2.03;1.10;;;13.40;99.90;;;;;;5180048;23;20222;-95
2024/03/13 16:42:53;;;;;;;2.28;1.23;;;13.40;99.90;;;;;;5165857;22;20139;-95
2024/03/13 16:44:56;;;;;;;3.05;1.88;;;13.40;99.90;;;;;;5165198;22;20167;-96
2024/03/13 16:46:57;;;;;;;3.13;1.45;;;13.30;99.90;;;;;;5189948;22;20139;-96
2024/03/13 16:49:02;;;;;;;1.58;1.08;;;13.20;99.90;;;;;;5166269;22;20144;-96
2024/03/13 16:51:06;;;;;;;3.80;1.70;;;13.30;99.90;;;;;;5166603;22;20207;-95
2024/03/13 16:53:09;;;;;;;3.13;1.73;;;13.30;99.90;;;;;;5166393;22;20167;-95
2024/03/13 16:55:16;;;;;;;3.90;1.60;;;13.30;99.90;;;;;;5166689;22;20148;-94
2024/03/13 16:57:22;;;;;;;2.05;1.30;;;13.20;99.90;;;;;;5166751;22;20148;-95
2024/03/13 16:59:35;;;;;;;2.03;1.17;;;13.20;99.90;;;;;;5191577;22;20158;-94
2024/03/13 17:01:45;;;;;;;2.38;1.23;;;13.10;99.90;;;;;;5154289;22;20155;-96
2024/03/13 17:04:01;;;;;;;2.05;0.80;;;13.00;99.90;;;;;;5143721;23;20194;-94
2024/03/13 17:06:09;;;;;;;2.92;1.40;;;13.00;99.90;;;;;;5144877;23;20175;-96
2024/03/13 17:08:28;;;;;;;1.27;0.93;;;12.90;99.90;;;;;;5169013;23;20147;-94
2024/03/13 17:10:43;;;;;;;2.20;1.40;;;12.80;99.90;;;;;;5145152;23;20167;-96
2024/03/13 17:12:53;;;;;;;4.00;1.30;;;12.90;99.90;;;;;;5143774;23;20152;-96
2024/03/13 17:15:07;;;;;;;2.03;1.10;;;12.90;99.90;;;;;;5148678;23;20159;-96
2024/03/13 17:17:21;;;;;;;1.58;1.10;;;12.80;99.90;;;;;;5152492;23;20151;-96
2024/03/13 17:19:35;;;;;;;2.45;1.30;;;12.80;99.90;;;;;;5176053;23;20171;-96
2024/03/13 17:21:45;;;;;;;2.58;1.30;;;12.70;99.90;;;;;;5178015;23;20581;-96
2024/03/13 17:24:00;;;;;;;3.90;1.10;;;12.70;99.90;;;;;;5147786;23;20193;-94
2024/03/13 17:26:05;;;;;;;1.85;1.10;;;12.70;99.90;;;;;;5169829;23;20234;-95
2024/03/13 17:28:08;;;;;;;2.63;1.27;;;12.70;99.90;;;;;;5144215;23;20163;-94
2024/03/13 17:30:18;;;;;;;5.65;1.35;;;12.80;99.90;;;;;;5143374;23;20164;-95
2024/03/13 17:32:29;;;;;;;2.00;1.08;;;12.70;99.90;;;;;;5145869;23;20144;-95
2024/03/13 17:34:32;;;;;;;1.20;0.80;;;12.70;99.90;;;;;;5143514;23;20209;-95
2024/03/13 17:36:38;;;;;;;1.67;0.88;;;12.60;99.90;;;;;;5143414;23;20234;-95
2024/03/13 17:38:44;;;;;;;3.25;1.40;;;12.50;99.90;;;;;;5167434;23;20382;-94
2024/03/13 17:40:47;;;;;;;1.85;1.48;;;12.40;99.90;;;;;;5143011;23;20504;-96
2024/03/13 17:42:57;;;;;;;2.22;1.25;;;12.50;99.90;;;;;;5143515;23;20160;-96
2024/03/13 17:45:03;;;;;;;4.50;1.75;;;12.50;99.90;;;;;;5145972;23;20167;-94
2024/03/13 17:47:16;;;;;;;2.65;1.17;;;12.40;99.90;;;;;;5147646;23;20210;-95
2024/03/13 17:49:19;;;;;;;2.10;0.93;;;12.40;99.90;;;;;;5165935;22;20160;-93
2024/03/13 17:51:20;;;;;;;1.85;0.77;;;12.40;99.90;;;;;;5157435;22;20285;-94
2024/03/13 17:53:21;;;;;;;3.60;1.10;;;12.40;99.90;;;;;;5148284;23;20502;-94
2024/03/13 17:55:22;;;;;;;1.42;0.73;;;12.40;99.90;;;;;;5148305;23;20148;-96
2024/03/13 17:57:23;;;;;;;1.08;0.85;;;12.40;99.90;;;;;;5146819;23;20147;-93
2024/03/13 17:59:25;;;;;;;0.63;0.43;;;12.30;99.90;;;;;;5172349;23;20177;-94
2024/03/13 18:01:27;;;;;;;1.13;0.70;;;12.30;99.90;;;;;;5147508;23;20155;-94
2024/03/13 18:03:29;;;;;;;1.58;0.85;;;12.30;99.90;;;;;;5146554;23;20673;-96
2024/03/13 18:05:31;;;;;;;1.42;0.80;;;12.30;99.90;;;;;;5148820;23;20186;-96
2024/03/13 18:07:32;;;;;;;1.52;0.68;;;12.30;99.90;;;;;;5171952;23;20151;-96
2024/03/13 18:09:36;;;;;;;1.33;0.90;;;12.40;99.90;;;;;;5145905;23;20551;-95
2024/03/13 18:11:37;;;;;;;5.97;1.13;;;12.30;99.90;;;;;;5146896;23;20154;-95
2024/03/13 18:13:39;;;;;;;1.70;0.90;;;12.40;99.90;;;;;;5146546;23;20144;-94
2024/03/13 18:15:43;;;;;;;1.55;0.88;;;12.30;99.90;;;;;;5118593;23;20175;-94
2024/03/13 18:17:44;;;;;;;1.10;0.63;;;12.30;99.90;;;;;;5143021;23;20644;-95
2024/03/13 18:19:45;;;;;;;1.23;0.60;;;12.40;99.90;;;;;;5142677;23;20182;-94
2024/03/13 18:21:46;;;;;;;1.48;0.90;;;12.40;99.90;;;;;;5142961;23;20229;-96
2024/03/13 18:23:47;;;;;;;0.85;0.50;;;12.40;99.90;;;;;;5167566;23;20190;-92
2024/03/13 18:25:49;;;;;;;1.17;0.75;;;12.50;99.90;;;;;;5142802;23;20144;-96
2024/03/13 18:27:50;;;;;;;4.97;1.45;;;12.40;99.90;;;;;;5142867;23;20162;-93
2024/03/13 18:29:51;;;;;;;3.35;1.55;;;12.30;99.90;;;;;;5167869;23;20171;-92
2024/03/13 18:31:53;;;;;;;1.38;1.10;;;12.30;99.90;;;;;;5144123;23;20469;-93
2024/03/13 18:33:54;;;;;;;1.15;0.55;;;12.30;99.90;;;;;;5167876;23;20158;-93
2024/03/13 18:35:55;;;;;;;1.75;0.70;;;12.30;99.90;;;;;;5167618;23;20224;-96
2024/03/13 18:37:58;;;;;;;0.55;0.50;;;12.30;99.90;;;;;;5142708;23;20151;-92
2024/03/13 18:39:59;;;;;;;1.55;0.60;;;12.30;99.90;;;;;;5117712;23;20230;-94
2024/03/13 18:42:00;;;;;;;0.90;0.60;;;12.30;99.90;;;;;;5167370;23;20629;-93
2024/03/13 18:44:01;;;;;;;0.50;0.47;;;12.40;99.90;;;;;;5142670;23;20187;-92
2024/03/13 18:46:02;;;;;;;1.02;0.60;;;12.40;99.90;;;;;;5167627;23;20190;-93
2024/03/13 18:48:03;;;;;;;1.20;0.73;;;12.30;99.90;;;;;;5142362;23;20159;-92
2024/03/13 18:50:07;;;;;;;0.60;0.45;;;12.20;99.90;;;;;;5142541;23;20518;-93
2024/03/13 18:52:11;;;;;;;0.60;0.40;;;12.30;99.90;;;;;;5143078;23;20151;-94
2024/03/13 18:54:12;;;;;;;1.77;0.88;;;12.20;99.90;;;;;;5168041;23;20221;-95
2024/03/13 18:56:13;;;;;;;1.48;0.75;;;12.10;99.90;;;;;;5167597;23;20166;-96
2024/03/13 18:58:14;;;;;;;1.15;0.52;;;12.00;99.90;;;;;;5142794;23;20202;-95
2024/03/13 19:00:17;;;;;;;1.30;0.57;;;12.00;99.90;;;;;;5142271;23;20494;-92
2024/03/13 19:02:20;;;;;;;1.75;0.93;;;12.00;99.90;;;;;;5142382;23;20178;-93
2024/03/13 19:04:22;;;;;;;0.30;0.30;;;11.90;99.90;;;;;;5142405;23;20191;-92
2024/03/13 19:06:23;;;;;;;2.80;0.63;;;11.80;99.90;;;;;;5142427;23;20155;-93
2024/03/13 19:08:27;;;;;;;0.65;0.55;;;11.80;99.90;;;;;;5142169;23;20151;-95
2024/03/13 19:10:30;;;;;;;1.70;0.50;;;11.80;99.90;;;;;;5142584;23;20171;-94
2024/03/13 19:12:31;;;;;;;0.40;0.40;;;11.80;99.90;;;;;;5142198;23;20152;-93
2024/03/13 19:14:32;;;;;;;0.90;0.60;;;11.80;99.90;;;;;;5142337;23;20162;-92
2024/03/13 19:16:35;;;;;;;3.70;0.50;;;11.70;99.90;;;;;;5142575;23;20148;-93
2024/03/13 19:18:36;;;;;;;1.50;0.95;;;11.70;99.90;;;;;;5142595;23;20155;-93
2024/03/13 19:20:42;;;;;;;1.35;0.80;;;11.70;99.90;;;;;;5167171;23;20202;-96
2024/03/13 19:22:45;;;;;;;1.70;0.75;;;11.70;99.90;;;;;;5142498;23;20535;-92
2024/03/13 19:24:46;;;;;;;1.23;0.60;;;11.70;99.90;;;;;;5142193;23;20183;-93
2024/03/13 19:26:47;;;;;;;1.58;0.73;;;11.70;99.90;;;;;;5142120;23;20194;-95
2024/03/13 19:28:48;;;;;;;1.67;1.00;;;11.70;99.90;;;;;;5167655;23;20155;-92
2024/03/13 19:30:49;;;;;;;0.95;0.75;;;11.60;99.90;;;;;;5142608;23;20147;-96
2024/03/13 19:32:50;;;;;;;1.90;1.00;;;11.60;99.90;;;;;;5142750;23;20233;-93
2024/03/13 19:34:51;;;;;;;3.75;0.88;;;11.60;99.90;;;;;;5167556;23;20151;-93
2024/03/13 19:36:52;;;;;;;1.17;0.80;;;11.60;99.90;;;;;;5142632;23;20230;-93
2024/03/13 19:38:53;;;;;;;2.22;0.75;;;11.70;99.90;;;;;;5142404;23;20565;-93
2024/03/13 19:40:54;;;;;;;2.47;0.85;;;11.70;99.90;;;;;;5167342;23;20151;-92
2024/03/13 19:42:59;;;;;;;1.50;0.70;;;11.60;99.90;;;;;;5142197;23;20152;-96
2024/03/13 19:45:00;;;;;;;3.35;1.17;;;11.60;99.90;;;;;;5167344;23;20170;-93
2024/03/13 19:47:01;;;;;;;1.60;0.80;;;11.60;99.90;;;;;;5142044;23;20180;-96
2024/03/13 19:49:02;;;;;;;2.05;0.70;;;11.60;99.90;;;;;;5142137;23;20190;-93
2024/03/13 19:51:03;;;;;;;1.73;0.70;;;11.60;99.90;;;;;;5142094;23;20173;-94
2024/03/13 19:53:04;;;;;;;4.95;1.48;;;11.50;99.90;;;;;;5141977;23;20201;-92
2024/03/13 19:55:05;;;;;;;1.63;0.90;;;11.60;99.90;;;;;;5142097;23;20144;-92
2024/03/13 19:57:07;;;;;;;1.73;0.98;;;11.50;99.90;;;;;;5142099;23;20152;-92
2024/03/13 19:59:11;;;;;;;0.77;0.50;;;11.50;99.90;;;;;;5142034;23;20199;-93
2024/03/13 20:01:11;;;;;;;1.52;0.90;;;11.50;99.90;;;;;;5142342;23;20590;-93
2024/03/13 20:03:12;;;;;;;1.95;0.50;;;11.50;99.90;;;;;;5141988;23;20148;-95
2024/03/13 20:05:13;;;;;;;4.60;0.80;;;11.50;99.90;;;;;;5167192;23;20157;-94
2024/03/13 20:07:15;;;;;;;1.63;0.70;;;11.50;99.90;;;;;;5142094;23;20180;-94
2024/03/13 20:09:18;;;;;;;1.40;0.82;;;11.60;99.90;;;;;;5142214;23;20190;-96
2024/03/13 20:11:21;;;;;;;1.10;0.80;;;11.50;99.90;;;;;;5142492;23;20163;-93
2024/03/13 20:13:22;;;;;;;1.10;0.73;;;11.50;99.90;;;;;;5141799;23;20156;-96
2024/03/13 20:15:23;;;;;;;4.82;0.95;;;11.50;99.90;;;;;;5143496;23;20154;-94
2024/03/13 20:17:24;;;;;;;2.08;0.70;;;11.50;99.90;;;;;;5169643;23;20197;-93
2024/03/13 20:19:25;;;;;;;1.50;0.85;;;11.40;99.90;;;;;;5162299;22;20167;-92
2024/03/13 20:21:26;;;;;;;1.08;0.70;;;11.40;99.90;;;;;;5154116;22;20202;-93
2024/03/13 20:23:26;;;;;;;3.22;1.00;;;11.30;99.90;;;;;;5142935;23;20171;-96
2024/03/13 20:25:29;;;;;;;2.47;1.15;;;11.20;99.90;;;;;;5144150;23;20155;-92
2024/03/13 20:27:30;;;;;;;1.67;0.90;;;11.20;99.90;;;;;;5143517;23;20175;-93
2024/03/13 20:29:31;;;;;;;1.80;0.93;;;11.10;99.90;;;;;;5143576;23;20171;-92
2024/03/13 20:31:31;;;;;;;1.08;0.70;;;11.20;99.90;;;;;;5143482;23;20152;-93
2024/03/13 20:33:32;;;;;;;2.95;0.85;;;11.20;99.90;;;;;;5143643;23;20155;-92
2024/03/13 20:35:33;;;;;;;2.53;0.70;;;11.30;99.90;;;;;;5168961;23;20147;-96
2024/03/13 20:37:34;;;;;;;2.45;1.00;;;11.20;99.90;;;;;;5168162;23;20509;-95
2024/03/13 20:39:35;;;;;;;1.13;0.52;;;11.20;99.90;;;;;;5143072;23;20499;-92
2024/03/13 20:41:36;;;;;;;2.22;0.88;;;11.20;99.90;;;;;;5168560;23;20518;-93
2024/03/13 20:43:37;;;;;;;2.35;1.10;;;11.20;99.90;;;;;;5143774;23;20206;-92
2024/03/13 20:45:38;;;;;;;2.38;0.82;;;11.30;99.90;;;;;;5143479;23;20246;-96
2024/03/13 20:47:40;;;;;;;1.08;0.80;;;11.30;99.90;;;;;;5168902;23;20193;-92
2024/03/13 20:49:40;;;;;;;4.28;0.93;;;11.30;99.90;;;;;;5143539;23;20203;-93